Time;durP1;ratioP1;P1;durP2;ratioP2;P2;SDS_P1;SDS_P2;PMS_P1;PMS_P2;Temp;Humidity;BMP_temperature;BMP_pressure;BME280_temperature;BME280_humidity;BME280_pressure;Samples;Min_cycle;Max_cycle;Signal;HPM_P1;HPM_P2
2023/03/28 00:00:23;;;;;;;;;;;5.10;99.90;;;;;;5064414;28;19912;-68
2023/03/28 00:02:49;;;;;;;;;;;5.10;99.90;;;;;;5077096;28;19935;-69
2023/03/28 00:05:16;;;;;;;;;;;5.10;99.90;;;;;;5076951;28;20248;-68
2023/03/28 00:07:42;;;;;;;;;;;5.20;99.90;;;;;;5082190;28;19920;-69
2023/03/28 00:10:08;;;;;;;;;;;5.30;99.90;;;;;;5053839;28;19924;-67
2023/03/28 00:12:34;;;;;;;;;;;5.40;99.90;;;;;;5072757;28;19920;-69
2023/03/28 00:14:59;;;;;;;;;;;5.40;99.90;;;;;;5059347;28;19921;-69
2023/03/28 00:17:25;;;;;;;;;;;5.40;99.90;;;;;;5074251;28;19944;-68
2023/03/28 00:19:52;;;;;;;;;;;5.40;99.90;;;;;;5079823;28;20303;-68
2023/03/28 00:22:19;;;;;;;;;;;5.40;99.90;;;;;;5078365;28;19916;-69
2023/03/28 00:24:47;;;;;;;;;;;5.40;99.90;;;;;;5078927;28;20007;-68
2023/03/28 00:27:14;;;;;;;;;;;5.30;99.90;;;;;;5063052;28;19916;-65
2023/03/28 00:29:40;;;;;;;;;;;5.20;99.90;;;;;;5069720;28;19916;-68
2023/03/28 00:32:06;;;;;;;;;;;5.30;99.90;;;;;;5055664;28;19919;-68
2023/03/28 00:34:31;;;;;;;;;;;5.30;99.90;;;;;;5068752;28;20388;-68
2023/03/28 00:36:57;;;;;;;;;;;5.20;99.90;;;;;;5074264;28;20289;-69
2023/03/28 00:39:23;;;;;;;;;;;5.30;99.90;;;;;;5068863;28;19917;-68
2023/03/28 00:41:48;;;;;;;;;;;5.30;99.90;;;;;;5054736;28;19963;-69
2023/03/28 00:44:33;;;;;;;;;;;5.30;99.90;;;;;;5068762;28;20376;-66
2023/03/28 00:46:58;;;;;;;;;;;5.30;99.90;;;;;;5075376;28;19918;-68
2023/03/28 00:49:25;;;;;;;;;;;5.20;99.90;;;;;;5068184;28;19916;-68
2023/03/28 00:51:57;;;;;;;;;;;5.20;99.90;;;;;;5077074;28;19916;-68
2023/03/28 00:54:25;;;;;;;;;;;5.20;99.90;;;;;;5074594;28;19916;-68
2023/03/28 00:56:52;;;;;;;;;;;5.30;99.90;;;;;;5069578;28;19912;-63
2023/03/28 00:59:19;;;;;;;;;;;5.30;99.90;;;;;;5066523;28;19967;-67
2023/03/28 01:01:45;;;;;;;;;;;5.40;99.90;;;;;;5071320;28;20003;-68
2023/03/28 01:04:10;;;;;;;;;;;5.50;99.90;;;;;;5071224;28;19919;-68
2023/03/28 01:06:39;;;;;;;;;;;5.70;99.90;;;;;;5071812;28;19913;-67
2023/03/28 01:09:06;;;;;;;;;;;5.80;99.90;;;;;;5071104;28;19920;-69
2023/03/28 01:11:34;;;;;;;;;;;5.90;99.90;;;;;;5066851;28;19984;-69
2023/03/28 01:14:03;;;;;;;;;;;5.90;99.90;;;;;;5079786;28;19958;-68
2023/03/28 01:16:29;;;;;;;;;;;6.00;99.90;;;;;;5073228;28;19912;-68
2023/03/28 01:19:00;;;;;;;;;;;6.00;99.90;;;;;;5071361;28;19976;-68
2023/03/28 01:21:38;;;;;;;;;;;6.00;99.90;;;;;;5068116;28;19913;-69
2023/03/28 01:24:16;;;;;;;;;;;6.00;99.90;;;;;;5074128;28;19912;-69
2023/03/28 01:26:44;;;;;;;;;;;6.00;99.90;;;;;;5074344;28;19927;-70
2023/03/28 01:29:30;;;;;;;;;;;6.00;99.90;;;;;;5079085;28;19912;-68
2023/03/28 01:32:10;;;;;;;;;;;6.10;99.90;;;;;;5077520;28;19969;-68
2023/03/28 01:34:51;;;;;;;;;;;6.10;99.90;;;;;;5070202;28;19912;-69
2023/03/28 01:37:35;;;;;;;;;;;6.10;99.90;;;;;;5053386;28;20329;-67
2023/03/28 01:40:06;;;;;;;;;;;6.20;99.90;;;;;;5065635;28;19912;-68
2023/03/28 01:42:38;;;;;;;;;;;6.20;99.90;;;;;;5067562;28;20383;-68
2023/03/28 01:45:13;;;;;;;;;;;6.20;99.90;;;;;;5070203;28;19963;-68
2023/03/28 01:47:50;;;;;;;;;;;6.20;99.90;;;;;;5075983;28;20253;-67
2023/03/28 01:50:18;;;;;;;;;;;6.20;99.90;;;;;;5075702;28;19927;-69
2023/03/28 01:52:44;;;;;;;;;;;6.30;99.90;;;;;;5079507;28;19919;-68
2023/03/28 01:55:15;;;;;;;;;;;6.40;99.90;;;;;;5082352;28;20104;-68
2023/03/28 01:57:48;;;;;;;;;;;6.60;99.90;;;;;;5074263;28;19912;-68
2023/03/28 02:00:18;;;;;;;;;;;6.60;99.90;;;;;;5077058;28;20357;-67
2023/03/28 02:02:48;;;;;;;;;;;6.60;99.90;;;;;;5058707;28;20395;-67
2023/03/28 02:05:14;;;;;;;;;;;6.50;99.90;;;;;;5069688;28;20359;-67
2023/03/28 02:07:40;;;;;;;;;;;6.40;99.90;;;;;;5081279;28;20011;-67
2023/03/28 02:10:07;;;;;;;;;;;6.40;99.90;;;;;;5071669;28;19921;-68
2023/03/28 02:12:55;;;;;;;;;;;6.40;99.90;;;;;;5074476;28;20501;-68
2023/03/28 02:15:22;;;;;;;;;;;6.40;99.90;;;;;;5071224;28;19939;-69
2023/03/28 02:17:51;;;;;;;;;;;6.50;99.90;;;;;;5076674;28;19912;-68
2023/03/28 02:20:19;;;;;;;;;;;6.40;99.90;;;;;;5070583;28;19951;-67
2023/03/28 02:22:54;;;;;;;;;;;6.50;99.90;;;;;;5068909;28;19952;-68
2023/03/28 02:25:19;;;;;;;;;;;6.50;99.90;;;;;;5074201;28;19931;-68
2023/03/28 02:27:46;;;;;;;;;;;6.40;99.90;;;;;;5076787;28;19919;-68
2023/03/28 02:30:12;;;;;;;;;;;6.40;99.90;;;;;;5070316;28;19967;-68
2023/03/28 02:32:39;;;;;;;;;;;6.40;99.90;;;;;;5070893;28;19919;-68
2023/03/28 02:35:05;;;;;;;;;;;6.40;99.90;;;;;;5076944;28;19924;-67
2023/03/28 02:37:40;;;;;;;;;;;6.50;99.90;;;;;;5078682;28;19990;-69
2023/03/28 02:40:21;;;;;;;;;;;6.50;99.90;;;;;;5077242;28;19912;-68
2023/03/28 02:43:09;;;;;;;;;;;6.50;99.90;;;;;;5069020;28;19936;-69
2023/03/28 02:45:53;;;;;;;;;;;6.50;99.90;;;;;;5070738;28;19923;-68
2023/03/28 02:48:19;;;;;;;;;;;6.60;99.90;;;;;;5077352;28;19912;-69
2023/03/28 02:50:45;;;;;;;;;;;6.60;99.90;;;;;;5081230;28;20033;-69
2023/03/28 02:53:26;;;;;;;;;;;6.70;99.90;;;;;;5078347;28;19916;-68
2023/03/28 02:56:06;;;;;;;;;;;6.70;99.90;;;;;;5076481;28;19912;-68
2023/03/28 02:58:46;;;;;;;;;;;6.70;99.90;;;;;;5076424;28;19919;-69
2023/03/28 03:01:13;;;;;;;;;;;6.70;99.90;;;;;;5077499;28;19912;-69
2023/03/28 03:03:39;;;;;;;;;;;6.70;99.90;;;;;;5074895;28;19924;-68
2023/03/28 03:06:05;;;;;;;;;;;6.80;99.90;;;;;;5074285;28;19912;-68
2023/03/28 03:08:31;;;;;;;;;;;6.80;99.90;;;;;;5070973;28;19919;-69
2023/03/28 03:10:56;;;;;;;;;;;6.80;99.90;;;;;;5069823;28;19928;-67
2023/03/28 03:13:22;;;;;;;;;;;6.80;99.90;;;;;;5071762;28;19913;-68
2023/03/28 03:15:48;;;;;;;;;;;6.80;99.90;;;;;;5074229;28;19923;-67
2023/03/28 03:18:15;;;;;;;;;;;6.80;99.90;;;;;;5078287;28;19912;-69
2023/03/28 03:20:44;;;;;;;;;;;6.90;99.90;;;;;;5077831;28;19971;-69
2023/03/28 03:23:10;;;;;;;;;;;6.90;99.90;;;;;;5080012;28;19913;-68
2023/03/28 03:25:36;;;;;;;;;;;6.90;99.90;;;;;;5079332;28;19927;-67
2023/03/28 03:28:02;;;;;;;;;;;6.80;99.90;;;;;;5068907;28;19913;-68
2023/03/28 03:30:27;;;;;;;;;;;6.90;99.90;;;;;;5076795;28;20406;-67
2023/03/28 03:32:54;;;;;;;;;;;6.90;99.90;;;;;;5070003;28;19921;-68
2023/03/28 03:35:20;;;;;;;;;;;6.90;99.90;;;;;;5073640;28;19912;-68
2023/03/28 03:37:46;;;;;;;;;;;6.90;99.90;;;;;;5069435;28;19931;-67
2023/03/28 03:40:11;;;;;;;;;;;6.90;99.90;;;;;;5074969;28;20604;-68
2023/03/28 03:42:37;;;;;;;;;;;7.00;99.90;;;;;;5071198;22;19928;-63
2023/03/28 03:45:03;;;;;;;;;;;7.00;99.90;;;;;;5068793;28;20335;-63
2023/03/28 03:47:29;;;;;;;;;;;7.00;99.90;;;;;;5067808;28;20390;-63
2023/03/28 03:49:55;;;;;;;;;;;7.00;99.90;;;;;;5061797;28;19920;-63
2023/03/28 03:52:20;;;;;;;;;;;7.00;99.90;;;;;;5067022;28;19936;-63
2023/03/28 03:54:46;;;;;;;;;;;7.00;99.90;;;;;;5048925;28;20425;-63
2023/03/28 03:57:12;;;;;;;;;;;7.10;99.90;;;;;;5046919;28;19927;-61
2023/03/28 03:59:37;;;;;;;;;;;7.10;99.90;;;;;;5068213;28;19966;-63
2023/03/28 04:02:03;;;;;;;;;;;7.10;99.90;;;;;;5067372;28;20038;-63
2023/03/28 04:04:29;;;;;;;;;;;7.10;99.90;;;;;;5066314;28;19919;-63
2023/03/28 04:06:58;;;;;;;;;;;7.20;99.90;;;;;;5068023;28;19938;-64
2023/03/28 04:09:26;;;;;;;;;;;7.20;99.90;;;;;;5068925;28;19925;-63
2023/03/28 04:11:52;;;;;;;;;;;7.20;99.90;;;;;;5047054;28;19948;-63
2023/03/28 04:14:18;;;;;;;;;;;7.10;99.90;;;;;;5067395;28;19920;-63
2023/03/28 04:16:43;;;;;;;;;;;7.10;99.90;;;;;;5066655;28;19921;-63
2023/03/28 04:19:09;;;;;;;;;;;7.20;99.90;;;;;;5067017;28;19952;-63
2023/03/28 04:21:35;;;;;;;;;;;7.20;99.90;;;;;;5072672;28;19913;-63
2023/03/28 04:24:01;;;;;;;;;;;7.20;99.90;;;;;;5088098;28;20351;-62
2023/03/28 04:26:28;;;;;;;;;;;7.10;99.90;;;;;;5076308;28;19913;-62
2023/03/28 04:28:54;;;;;;;;;;;7.10;99.90;;;;;;5069149;28;19917;-61
2023/03/28 04:31:20;;;;;;;;;;;7.20;99.90;;;;;;5071071;28;19920;-63
2023/03/28 04:33:47;;;;;;;;;;;7.20;99.90;;;;;;5070365;28;19966;-62
2023/03/28 04:36:15;;;;;;;;;;;7.30;99.90;;;;;;5065031;28;20402;-62
2023/03/28 04:38:44;;;;;;;;;;;7.20;99.90;;;;;;5078648;28;19912;-62
2023/03/28 04:41:11;;;;;;;;;;;7.30;99.90;;;;;;5070965;28;20015;-61
2023/03/28 04:43:36;;;;;;;;;;;7.30;99.90;;;;;;5069765;28;19995;-62
2023/03/28 04:46:02;;;;;;;;;;;7.30;99.90;;;;;;5077464;28;20429;-62
2023/03/28 04:48:28;;;;;;;;;;;7.30;99.90;;;;;;5081221;28;19963;-62
2023/03/28 04:50:54;;;;;;;;;;;7.40;99.90;;;;;;5079551;28;19920;-63
2023/03/28 04:53:20;;;;;;;;;;;7.40;99.90;;;;;;5073313;28;19959;-62
2023/03/28 04:55:49;;;;;;;;;;;7.40;99.90;;;;;;5073401;28;19938;-61
2023/03/28 04:58:15;;;;;;;;;;;7.40;99.90;;;;;;5072337;28;19912;-62
2023/03/28 05:00:41;;;;;;;;;;;7.40;99.90;;;;;;5066711;28;19916;-61
2023/03/28 05:03:17;;;;;;;;;;;7.40;99.90;;;;;;5066517;28;20007;-62
2023/03/28 05:05:44;;;;;;;;;;;7.50;99.90;;;;;;5071079;28;19912;-62
2023/03/28 05:08:11;;;;;;;;;;;7.50;99.90;;;;;;5070048;28;19912;-63
2023/03/28 05:10:37;;;;;;;;;;;7.40;99.90;;;;;;5065641;28;19927;-61
2023/03/28 05:13:03;;;;;;;;;;;7.40;99.90;;;;;;5066138;28;20406;-62
2023/03/28 05:15:30;;;;;;;;;;;7.40;99.90;;;;;;5072898;28;19912;-62
2023/03/28 05:17:56;;;;;;;;;;;7.40;99.90;;;;;;5069253;28;19912;-62
2023/03/28 05:20:21;;;;;;;;;;;7.40;99.90;;;;;;5070231;28;19917;-62
2023/03/28 05:22:47;;;;;;;;;;;7.50;99.90;;;;;;5062290;28;20307;-63
2023/03/28 05:25:13;;;;;;;;;;;7.50;99.90;;;;;;5062618;28;19912;-64
2023/03/28 05:27:38;;;;;;;;;;;7.40;99.90;;;;;;5069621;28;20018;-63
2023/03/28 05:30:05;;;;;;;;;;;7.40;99.90;;;;;;5047351;28;19921;-63
2023/03/28 05:32:30;;;;;;;;;;;7.40;99.90;;;;;;5055672;28;19913;-62
2023/03/28 05:34:56;;;;;;;;;;;7.40;99.90;;;;;;5047619;28;19912;-62
2023/03/28 05:37:21;;;;;;;;;;;7.40;99.90;;;;;;5069119;28;19919;-63
2023/03/28 05:39:47;;;;;;;;;;;7.40;99.90;;;;;;5058161;28;19912;-63
2023/03/28 05:42:13;;;;;;;;;;;7.50;99.90;;;;;;5065984;28;20368;-63
2023/03/28 05:44:38;;;;;;;;;;;7.50;99.90;;;;;;5068786;28;19964;-63
2023/03/28 05:47:04;;;;;;;;;;;7.50;99.90;;;;;;5067013;28;20394;-63
2023/03/28 05:49:30;;;;;;;;;;;7.60;99.90;;;;;;5071542;28;19927;-62
2023/03/28 05:51:55;;;;;;;;;;;7.60;99.90;;;;;;5068723;28;19958;-62
2023/03/28 05:54:21;;;;;;;;;;;7.70;99.90;;;;;;5050192;28;19908;-62
2023/03/28 05:56:46;;;;;;;;;;;7.70;99.90;;;;;;5064960;28;20288;-62
2023/03/28 05:59:12;;;;;;;;;;;7.80;99.90;;;;;;5068634;28;19912;-62
2023/03/28 06:01:38;;;;;;;;;;;7.70;99.90;;;;;;5060660;28;19912;-63
2023/03/28 06:04:04;;;;;;;;;;;7.80;99.90;;;;;;5064421;28;19924;-62
2023/03/28 06:06:31;;;;;;;;;;;7.80;99.90;;;;;;5064496;28;20289;-62
2023/03/28 06:08:57;;;;;;;;;;;7.90;99.90;;;;;;5064870;28;19917;-62
2023/03/28 06:11:23;;;;;;;;;;;8.00;99.90;;;;;;5073940;28;20057;-63
2023/03/28 06:13:49;;;;;;;;;;;8.00;99.90;;;;;;5065910;28;20258;-63
2023/03/28 06:16:15;;;;;;;;;;;8.10;99.90;;;;;;5069149;28;19913;-63
2023/03/28 06:18:40;;;;;;;;;;;8.10;99.90;;;;;;5061977;28;19944;-63
2023/03/28 06:21:06;;;;;;;;;;;8.20;99.90;;;;;;5067566;28;19935;-62
2023/03/28 06:23:32;;;;;;;;;;;8.20;99.90;;;;;;5068863;28;19978;-62
2023/03/28 06:25:57;;;;;;;;;;;8.30;99.90;;;;;;5062200;28;19917;-62
2023/03/28 06:28:23;;;;;;;;;;;8.30;99.90;;;;;;5067168;28;20365;-62
2023/03/28 06:30:49;;;;;;;;;;;8.30;99.90;;;;;;5067437;28;19982;-63
2023/03/28 06:33:15;;;;;;;;;;;8.40;99.90;;;;;;5060887;28;19974;-62
2023/03/28 06:35:40;;;;;;;;;;;8.40;99.90;;;;;;5068498;28;19912;-63
2023/03/28 06:38:06;;;;;;;;;;;8.50;99.90;;;;;;5066844;28;19920;-62
2023/03/28 06:40:31;;;;;;;;;;;8.60;99.90;;;;;;5046050;28;19913;-63
2023/03/28 06:42:57;;;;;;;;;;;8.50;99.90;;;;;;5065946;28;19921;-63
2023/03/28 06:45:23;;;;;;;;;;;8.60;99.90;;;;;;5069029;28;19920;-62
2023/03/28 06:47:49;;;;;;;;;;;8.60;99.90;;;;;;5065090;28;19957;-62
2023/03/28 06:50:15;;;;;;;;;;;8.70;99.90;;;;;;5051554;28;19928;-62
2023/03/28 06:52:41;;;;;;;;;;;8.70;99.90;;;;;;5067364;28;19913;-61
2023/03/28 06:55:07;;;;;;;;;;;8.80;99.90;;;;;;5065294;28;19921;-61
2023/03/28 06:57:32;;;;;;;;;;;8.70;99.90;;;;;;5065563;28;19939;-62
2023/03/28 06:59:58;;;;;;;;;;;8.80;99.90;;;;;;5067560;28;20003;-61
2023/03/28 07:02:24;;;;;;;;;;;8.90;99.90;;;;;;5075381;28;19920;-62
2023/03/28 07:04:50;;;;;;;;;;;8.90;99.90;;;;;;5069457;28;20284;-62
2023/03/28 07:07:15;;;;;;;;;;;8.90;99.90;;;;;;5074840;28;19944;-63
2023/03/28 07:09:41;;;;;;;;;;;8.90;99.90;;;;;;5053639;28;19968;-63
2023/03/28 07:12:07;;;;;;;;;;;8.90;99.90;;;;;;5069910;28;20308;-62
2023/03/28 07:14:32;;;;;;;;;;;8.90;99.90;;;;;;5071799;28;20425;-62
2023/03/28 07:16:58;;;;;;;;;;;8.90;99.90;;;;;;5059812;28;19923;-62
2023/03/28 07:19:24;;;;;;;;;;;9.00;99.90;;;;;;5070672;28;19916;-61
2023/03/28 07:21:51;;;;;;;;;;;9.00;99.90;;;;;;5069938;28;19913;-62
2023/03/28 07:24:17;;;;;;;;;;;8.80;99.90;;;;;;5069504;28;19913;-62
2023/03/28 07:26:44;;;;;;;;;;;8.90;99.90;;;;;;5065134;28;20426;-62
2023/03/28 07:29:10;;;;;;;;;;;8.90;99.90;;;;;;5065725;28;19957;-62
2023/03/28 07:31:35;;;;;;;;;;;8.80;99.90;;;;;;5071241;28;19966;-62
2023/03/28 07:34:01;;;;;;;;;;;8.80;99.90;;;;;;5051326;28;19912;-63
2023/03/28 07:36:28;;;;;;;;;;;8.70;99.90;;;;;;5063973;28;19948;-63
2023/03/28 07:38:53;;;;;;;;;;;8.70;99.90;;;;;;5065225;28;20007;-63
2023/03/28 07:41:21;;;;;;;;;;;8.70;99.90;;;;;;5070269;28;20015;-63
2023/03/28 07:43:46;;;;;;;;;;;8.70;99.90;;;;;;5069059;28;19921;-64
2023/03/28 07:46:13;;;;;;;;;;;8.60;99.90;;;;;;5071114;28;20386;-63
2023/03/28 07:48:40;;;;;;;;;;;8.70;99.90;;;;;;5065206;28;20004;-62
2023/03/28 07:51:06;;;;;;;;;;;8.70;99.90;;;;;;5067977;28;19957;-63
2023/03/28 07:53:33;;;;;;;;;;;8.70;99.90;;;;;;5063307;28;19918;-63
2023/03/28 07:55:59;;;;;;;;;;;8.70;99.90;;;;;;5062395;28;19956;-63
2023/03/28 07:58:25;;;;;;;;;;;8.70;99.90;;;;;;5067346;28;19957;-64
2023/03/28 08:00:50;;;;;;;;;;;8.70;99.90;;;;;;5067053;28;20327;-64
2023/03/28 08:03:17;;;;;;;;;;;8.60;99.90;;;;;;5074482;28;19948;-63
2023/03/28 08:05:48;;;;;;;;;;;8.70;99.90;;;;;;5077660;28;19913;-63
2023/03/28 08:08:14;;;;;;;;;;;8.80;99.90;;;;;;5069852;28;19913;-65
2023/03/28 08:10:39;;;;;;;;;;;8.70;99.90;;;;;;5070434;28;19974;-64
2023/03/28 08:13:05;;;;;;;;;;;8.70;99.90;;;;;;5065969;28;20007;-69
2023/03/28 08:15:31;;;;;;;;;;;8.80;99.90;;;;;;5070755;28;19916;-64
2023/03/28 08:17:57;;;;;;;;;;;8.80;99.90;;;;;;5067835;28;19912;-64
2023/03/28 08:20:23;;;;;;;;;;;8.70;99.90;;;;;;5070359;28;20368;-63
2023/03/28 08:22:49;;;;;;;;;;;8.80;99.90;;;;;;5064419;28;19923;-63
2023/03/28 08:25:15;;;;;;;;;;;8.80;99.90;;;;;;5069164;28;19916;-64
2023/03/28 08:27:41;;;;;;;;;;;8.90;99.90;;;;;;5073693;28;19919;-64
2023/03/28 08:30:07;;;;;;;;;;;9.00;99.90;;;;;;5068129;28;19920;-65
2023/03/28 08:32:32;;;;;;;;;;;9.00;99.90;;;;;;5069674;28;19931;-64
2023/03/28 08:35:05;;;;;;;;;;;9.00;99.90;;;;;;5061029;28;19920;-63
2023/03/28 08:37:30;;;;;;;;;;;8.90;99.90;;;;;;5069901;28;19919;-64
2023/03/28 08:39:57;;;;;;;;;;;9.00;99.90;;;;;;5068272;28;19916;-63
2023/03/28 08:42:29;;;;;;;;;;;8.90;99.90;;;;;;5070053;28;19918;-63
2023/03/28 08:45:07;;;;;;;;;;;8.90;99.90;;;;;;5067627;28;19963;-63
2023/03/28 08:47:41;;;;;;;;;;;8.90;99.90;;;;;;5073669;28;19916;-64
2023/03/28 08:50:14;;;;;;;;;;;8.90;99.90;;;;;;5066526;28;20018;-64
2023/03/28 08:52:42;;;;;;;;;;;9.00;99.90;;;;;;5077287;28;19922;-64
2023/03/28 08:55:16;;;;;;;;;;;8.90;99.90;;;;;;5068724;28;19912;-63
2023/03/28 08:57:43;;;;;;;;;;;8.90;99.90;;;;;;5071734;28;20307;-62
2023/03/28 09:00:23;;;;;;;;;;;9.00;99.90;;;;;;5069774;28;19912;-63
2023/03/28 09:02:49;;;;;;;;;;;9.00;99.90;;;;;;5065608;28;19916;-63
2023/03/28 09:05:16;;;;;;;;;;;9.10;99.90;;;;;;5069101;28;19919;-63
2023/03/28 09:07:59;;;;;;;;;;;9.10;99.90;;;;;;5070669;28;19912;-63
2023/03/28 09:10:27;;;;;;;;;;;9.10;99.90;;;;;;5064835;28;19955;-63
2023/03/28 09:13:04;;;;;;;;;;;9.20;99.90;;;;;;5072572;28;19919;-63
2023/03/28 09:15:38;;;;;;;;;;;9.30;99.90;;;;;;5067687;28;20426;-64
2023/03/28 09:18:12;;;;;;;;;;;9.30;99.90;;;;;;5066086;28;20315;-65
2023/03/28 09:20:41;;;;;;;;;;;9.40;99.90;;;;;;5064741;28;19923;-64
2023/03/28 09:23:12;;;;;;;;;;;9.40;99.90;;;;;;5065881;28;19913;-64
2023/03/28 09:25:38;;;;;;;;;;;9.40;99.90;;;;;;5068781;28;19916;-65
2023/03/28 09:28:03;;;;;;;;;;;9.40;99.90;;;;;;5068364;28;20350;-64
2023/03/28 09:30:33;;;;;;;;;;;9.20;99.90;;;;;;5067599;28;19920;-64
2023/03/28 09:33:02;;;;;;;;;;;9.00;99.90;;;;;;5065128;28;19917;-64
2023/03/28 09:35:29;;;;;;;;;;;8.90;99.90;;;;;;5068350;28;19934;-64
2023/03/28 09:38:00;;;;;;;;;;;8.90;99.90;;;;;;5073110;28;19920;-64
2023/03/28 09:40:27;;;;;;;;;;;8.80;99.90;;;;;;5068005;28;19912;-64
2023/03/28 09:43:13;;;;;;;;;;;8.80;99.90;;;;;;5061260;28;20291;-64
2023/03/28 09:45:39;;;;;;;;;;;8.80;99.90;;;;;;5028214;28;19939;-64
2023/03/28 09:48:06;;;;;;;;;;;8.70;99.90;;;;;;5068085;28;21004;-63
2023/03/28 09:50:32;;;;;;;;;;;8.70;99.90;;;;;;5072880;28;19973;-63
2023/03/28 09:52:58;;;;;;;;;;;8.60;99.90;;;;;;5063378;28;19963;-63
2023/03/28 09:55:26;;;;;;;;;;;8.60;99.90;;;;;;5066703;28;20391;-63
2023/03/28 09:58:02;;;;;;;;;;;8.50;99.90;;;;;;5062649;28;19912;-63
2023/03/28 10:00:28;;;;;;;;;;;8.50;99.90;;;;;;5068720;28;19970;-64
2023/03/28 10:02:54;;;;;;;;;;;8.50;99.90;;;;;;5063303;28;19913;-63
2023/03/28 10:05:39;;;;;;;;;;;8.40;99.90;;;;;;5070763;28;20356;-64
2023/03/28 10:08:19;;;;;;;;;;;8.40;99.90;;;;;;5065166;28;19982;-66
2023/03/28 10:10:53;;;;;;;;;;;8.40;99.90;;;;;;5064388;28;19972;-64
2023/03/28 10:13:18;;;;;;;;;;;8.30;99.90;;;;;;5064770;28;19912;-65
2023/03/28 10:15:45;;;;;;;;;;;8.40;99.90;;;;;;5063345;28;19962;-66
2023/03/28 10:18:18;;;;;;;;;;;8.40;99.90;;;;;;5064816;28;19961;-65
2023/03/28 10:20:44;;;;;;;;;;;8.40;99.90;;;;;;5066027;28;19916;-65
2023/03/28 10:23:11;;;;;;;;;;;8.40;99.90;;;;;;5061395;28;19986;-66
2023/03/28 10:25:41;;;;;;;;;;;8.40;99.90;;;;;;5069745;28;20019;-66
2023/03/28 10:28:12;;;;;;;;;;;8.40;99.90;;;;;;5069213;28;19916;-65
2023/03/28 10:30:39;;;;;;;;;;;8.50;99.90;;;;;;5067616;28;20031;-66
2023/03/28 10:33:25;;;;;;;;;;;8.50;99.90;;;;;;5068233;28;19916;-67
2023/03/28 10:35:56;;;;;;;;;;;8.40;99.90;;;;;;5058723;28;19931;-65
2023/03/28 10:38:23;;;;;;;;;;;8.40;99.90;;;;;;5070067;28;19913;-65
2023/03/28 10:40:57;;;;;;;;;;;8.40;99.90;;;;;;5067940;28;19962;-66
2023/03/28 10:43:29;;;;;;;;;;;8.30;99.90;;;;;;5052936;28;19952;-66
2023/03/28 10:45:58;;;;;;;;;;;8.40;99.90;;;;;;5050081;28;20431;-65
2023/03/28 10:48:26;;;;;;;;;;;8.40;99.90;;;;;;5050196;28;19920;-66
2023/03/28 10:50:53;;;;;;;;;;;8.50;99.90;;;;;;5050980;28;19975;-66
2023/03/28 10:53:28;;;;;;;;;;;8.50;99.90;;;;;;5052194;28;20382;-66
2023/03/28 10:55:53;;;;;;;;;;;8.60;99.90;;;;;;5048187;28;19917;-65
2023/03/28 10:58:36;;;;;;;;;;;8.60;99.90;;;;;;5054134;28;20012;-66
2023/03/28 11:01:09;;;;;;;;;;;8.70;99.90;;;;;;5047473;28;20307;-66
2023/03/28 11:03:52;;;;;;;;;;;8.70;99.90;;;;;;5048674;28;19920;-67
2023/03/28 11:06:38;;;;;;;;;;;8.80;99.90;;;;;;5050067;28;20007;-66
2023/03/28 11:09:04;;;;;;;;;;;8.60;99.90;;;;;;5045740;28;20368;-66
2023/03/28 11:11:45;;;;;;;;;;;8.60;99.90;;;;;;5052781;28;19931;-66
2023/03/28 11:14:25;;;;;;;;;;;8.70;99.90;;;;;;5050785;28;19913;-67
2023/03/28 11:17:00;;;;;;;;;;;8.70;99.90;;;;;;5047429;28;19913;-65
2023/03/28 11:19:44;;;;;;;;;;;8.60;99.90;;;;;;5043403;28;19995;-65
2023/03/28 11:22:10;;;;;;;;;;;8.50;99.90;;;;;;5048346;28;19913;-65
2023/03/28 11:24:47;;;;;;;;;;;8.40;99.90;;;;;;5048162;28;19983;-65
2023/03/28 11:27:26;;;;;;;;;;;8.40;99.90;;;;;;5042100;28;19913;-65
2023/03/28 11:30:01;;;;;;;;;;;8.30;99.90;;;;;;5047279;28;20892;-64
2023/03/28 11:32:29;;;;;;;;;;;8.20;99.90;;;;;;5049626;28;19913;-66
2023/03/28 11:34:58;;;;;;;;;;;8.20;99.90;;;;;;5046905;28;20006;-63
2023/03/28 11:37:35;;;;;;;;;;;8.20;99.90;;;;;;5037773;28;19919;-64
2023/03/28 11:40:12;;;;;;;;;;;8.30;99.90;;;;;;5047129;28;19927;-64
2023/03/28 11:42:59;;;;;;;;;;;8.30;99.90;;;;;;5055024;28;20019;-66
2023/03/28 11:46:00;;;;;;;;;;;8.30;99.90;;;;;;5065996;28;19924;-64
2023/03/28 11:48:28;;;;;;;;;;;8.30;99.90;;;;;;4990885;28;19913;-63
2023/03/28 11:51:00;;;;;;;;;;;8.50;99.90;;;;;;4984314;28;20358;-64
2023/03/28 11:53:29;;;;;;;;;;;8.50;99.90;;;;;;4987290;28;19937;-64
2023/03/28 11:56:01;;;;;;;;;;;8.50;99.90;;;;;;4978788;28;20491;-64
2023/03/28 11:58:28;;;;;;;;;;;8.60;99.90;;;;;;4988191;28;20423;-65
2023/03/28 12:01:01;;;;;;;;;;;8.80;99.90;;;;;;4981108;28;20009;-63
2023/03/28 12:03:41;;;;;;;;;;;8.90;99.90;;;;;;4976985;28;20433;-65
2023/03/28 12:06:18;;;;;;;;;;;8.90;99.90;;;;;;4978912;28;19914;-64
2023/03/28 12:08:52;;;;;;;;;;;8.90;99.90;;;;;;4986185;28;20377;-63
2023/03/28 12:11:25;;;;;;;;;;;9.00;99.90;;;;;;4993743;28;19965;-63
2023/03/28 12:13:56;;;;;;;;;;;9.00;99.90;;;;;;4995367;28;19914;-64
2023/03/28 12:16:27;;;;;;;;;;;9.10;99.90;;;;;;4994627;28;19929;-64
2023/03/28 12:18:57;;;;;;;;;;;9.40;99.90;;;;;;4989930;28;19915;-64
2023/03/28 12:21:26;;;;;;;;;;;9.60;99.90;;;;;;5003276;28;19917;-64
2023/03/28 12:23:58;;;;;;;;;;;9.80;99.90;;;;;;5068135;28;19919;-64
2023/03/28 12:26:30;;;;;;;;;;;9.80;99.90;;;;;;5068251;28;19976;-62
2023/03/28 12:28:57;;;;;;;;;;;10.00;99.90;;;;;;5066109;28;19917;-64
2023/03/28 12:31:29;;;;;;;;;;;10.10;99.90;;;;;;5072321;28;20026;-63
2023/03/28 12:33:55;;;;;;;;;;;10.20;99.90;;;;;;5067606;28;20086;-62
2023/03/28 12:36:33;;;;;;;;;;;10.10;99.90;;;;;;5070125;28;19912;-63
2023/03/28 12:39:03;;;;;;;;;;;10.00;99.90;;;;;;5066684;28;20410;-64
2023/03/28 12:41:36;;;;;;;;;;;9.80;99.90;;;;;;5069734;28;20058;-62
2023/03/28 12:44:02;;;;;;;;;;;9.80;99.90;;;;;;5064183;28;19993;-63
2023/03/28 12:46:36;;;;;;;;;;;9.80;99.90;;;;;;5064162;28;19999;-63
2023/03/28 12:49:15;;;;;;;;;;;9.90;99.90;;;;;;5067372;28;19918;-62
2023/03/28 12:51:58;;;;;;;;;;;10.10;99.90;;;;;;5067698;28;19936;-63
2023/03/28 12:54:28;;;;;;;;;;;10.20;99.90;;;;;;5069959;28;20352;-64
2023/03/28 12:56:58;;;;;;;;;;;10.20;99.90;;;;;;5059557;28;19920;-63
2023/03/28 12:59:42;;;;;;;;;;;10.20;99.90;;;;;;5048862;28;20390;-64
2023/03/28 13:02:11;;;;;;;;;;;10.20;99.90;;;;;;5064133;28;19921;-64
2023/03/28 13:04:57;;;;;;;;;;;10.30;99.90;;;;;;5064544;28;20041;-64
2023/03/28 13:07:34;;;;;;;;;;;10.30;99.90;;;;;;5048578;28;19913;-64
2023/03/28 13:10:06;;;;;;;;;;;10.20;99.90;;;;;;5061302;28;19932;-63
2023/03/28 13:12:51;;;;;;;;;;;9.90;99.90;;;;;;5061696;28;19981;-64
2023/03/28 13:15:19;;;;;;;;;;;10.00;99.90;;;;;;5063477;28;19920;-63
2023/03/28 13:17:46;;;;;;;;;;;10.20;99.90;;;;;;5060647;28;20016;-62
2023/03/28 13:20:14;;;;;;;;;;;10.40;99.90;;;;;;5064539;28;19924;-64
2023/03/28 13:22:43;;;;;;;;;;;10.50;99.90;;;;;;5062877;28;20429;-64
2023/03/28 13:25:20;;;;;;;;;;;10.70;99.90;;;;;;5061682;28;20288;-62
2023/03/28 13:27:50;;;;;;;;;;;11.10;99.90;;;;;;5060274;28;20030;-64
2023/03/28 13:30:36;;;;;;;;;;;11.70;99.90;;;;;;5059544;28;20023;-63
2023/03/28 13:33:06;;;;;;;;;;;12.00;99.90;;;;;;5062034;28;19966;-64
2023/03/28 13:35:35;;;;;;;;;;;12.20;99.90;;;;;;5067567;28;20386;-64
2023/03/28 13:38:19;;;;;;;;;;;12.10;99.90;;;;;;5063455;28;19913;-64
2023/03/28 13:40:49;;;;;;;;;;;11.70;99.90;;;;;;5063023;28;19923;-63
2023/03/28 13:43:24;;;;;;;;;;;11.60;99.90;;;;;;5057196;28;19928;-65
2023/03/28 13:45:53;;;;;;;;;;;11.60;99.90;;;;;;5045236;28;19940;-63
2023/03/28 13:48:20;;;;;;;;;;;11.40;99.90;;;;;;5048874;28;20364;-62
2023/03/28 13:50:47;;;;;;;;;;;11.40;99.90;;;;;;5051679;28;19921;-63
2023/03/28 13:53:13;;;;;;;;;;;11.60;99.90;;;;;;5029076;28;20308;-63
2023/03/28 13:55:41;;;;;;;;;;;11.90;99.90;;;;;;5048352;28;19923;-62
2023/03/28 13:58:10;;;;;;;;;;;11.90;99.90;;;;;;5044210;28;19913;-63
2023/03/28 14:00:36;;;;;;;;;;;12.10;99.90;;;;;;5046919;28;20498;-63
2023/03/28 14:03:03;;;;;;;;;;;12.60;99.90;;;;;;5044181;28;19913;-64
2023/03/28 14:05:31;;;;;;;;;;;13.10;99.90;;;;;;5046860;28;19912;-63
2023/03/28 14:08:09;;;;;;;;;;;13.10;99.90;;;;;;5047729;28;19924;-63
2023/03/28 14:10:35;;;;;;;;;;;12.60;99.90;;;;;;5041891;28;19925;-63
2023/03/28 14:13:03;;;;;;;;;;;12.30;99.90;;;;;;5045616;28;19913;-63
2023/03/28 14:15:29;;;;;;;;;;;11.80;99.90;;;;;;5043784;28;19913;-63
2023/03/28 14:17:57;;;;;;;;;;;11.60;99.90;;;;;;5037815;28;20355;-64
2023/03/28 14:20:24;;;;;;;;;;;11.10;99.90;;;;;;5040928;28;20277;-62
2023/03/28 14:22:51;;;;;;;;;;;10.90;99.90;;;;;;5045276;28;19928;-62
2023/03/28 14:25:17;;;;;;;;;;;11.00;99.90;;;;;;5046901;28;20007;-64
2023/03/28 14:27:50;;;;;;;;;;;11.10;99.90;;;;;;5053785;28;19913;-63
2023/03/28 14:30:17;;;;;;;;;;;11.10;99.90;;;;;;5042914;28;20015;-63
2023/03/28 14:32:50;;;;;;;;;;;10.90;99.90;;;;;;5048964;28;19920;-63
2023/03/28 14:35:21;;;;;;;;;;;10.80;99.90;;;;;;5043255;28;19913;-63
2023/03/28 14:37:48;;;;;;;;;;;11.00;99.90;;;;;;5047958;28;19928;-64
2023/03/28 14:40:17;;;;;;;;;;;11.20;99.90;;;;;;5044954;28;19976;-64